createdAt,value
2018-07-02T00:01:35.696Z,19.48
2018-07-02T00:03:41.035Z,19.46
2018-07-02T00:06:02.577Z,19.44
2018-07-02T00:08:07.733Z,19.54
2018-07-02T00:10:12.594Z,19.52
2018-07-02T00:12:18.581Z,19.39
2018-07-02T00:14:23.471Z,19.35
2018-07-02T00:16:29.010Z,18.25
2018-07-02T00:18:34.272Z,18.66
2018-07-02T00:20:39.252Z,19.20
2018-07-02T00:22:44.724Z,19.15
2018-07-02T00:24:49.944Z,19.14
2018-07-02T00:26:55.215Z,18.24
2018-07-02T00:29:00.375Z,19.07
2018-07-02T00:31:05.397Z,19.04
2018-07-02T00:33:10.334Z,19.00
2018-07-02T00:35:15.295Z,19.04
2018-07-02T00:37:20.339Z,18.99
2018-07-02T00:39:25.300Z,18.83
2018-07-02T00:41:30.668Z,18.90
2018-07-02T00:43:35.704Z,18.85
2018-07-02T00:45:40.543Z,18.84
2018-07-02T00:47:45.371Z,18.79
2018-07-02T00:49:50.252Z,18.42
2018-07-02T00:51:55.268Z,18.70
2018-07-02T00:54:00.168Z,18.50
2018-07-02T00:56:05.082Z,18.58
2018-07-02T00:58:10.893Z,18.58
2018-07-02T01:00:16.680Z,18.63
2018-07-02T01:02:21.739Z,18.54
2018-07-02T01:04:26.615Z,18.51
2018-07-02T01:06:31.618Z,18.42
2018-07-02T01:08:36.723Z,18.30
2018-07-02T01:10:41.780Z,18.40
2018-07-02T01:12:46.927Z,18.40
2018-07-02T01:14:51.911Z,18.39
2018-07-02T01:16:56.741Z,18.34
2018-07-02T01:19:01.572Z,18.29
2018-07-02T01:21:06.528Z,18.24
2018-07-02T01:23:11.284Z,18.23
2018-07-02T01:25:16.076Z,18.27
2018-07-02T01:27:20.799Z,18.23
2018-07-02T01:29:26.081Z,17.75
2018-07-02T01:31:31.605Z,18.21
2018-07-02T01:33:36.579Z,18.17
2018-07-02T01:35:41.448Z,18.14
2018-07-02T01:37:46.451Z,18.01
2018-07-02T01:39:51.434Z,18.09
2018-07-02T01:41:56.447Z,18.01
2018-07-02T01:44:01.333Z,18.03
2018-07-02T01:46:06.293Z,17.96
2018-07-02T01:50:25.654Z,17.93
2018-07-02T01:52:30.572Z,17.95
2018-07-02T01:54:35.586Z,17.88
2018-07-02T01:56:40.481Z,17.85
2018-07-02T01:58:45.265Z,17.80
2018-07-02T02:00:50.135Z,17.65
2018-07-02T02:02:55.057Z,17.69
2018-07-02T02:04:59.924Z,17.63
2018-07-02T02:07:05.061Z,17.59
2018-07-02T02:09:11.097Z,17.55
2018-07-02T02:11:16.003Z,17.50
2018-07-02T02:13:20.829Z,17.46
2018-07-02T02:15:25.696Z,17.40
2018-07-02T02:17:30.529Z,17.40
2018-07-02T02:19:35.588Z,17.23
2018-07-02T02:21:40.468Z,17.00
2018-07-02T02:23:45.281Z,17.20
2018-07-02T02:25:50.132Z,17.16
2018-07-02T02:27:55.178Z,17.16
2018-07-02T02:30:00.270Z,17.10
2018-07-02T02:32:06.768Z,17.16
2018-07-02T02:34:11.616Z,17.11
2018-07-02T02:36:16.519Z,17.12
2018-07-02T02:38:21.526Z,16.98
2018-07-02T02:40:26.790Z,17.03
2018-07-02T02:42:31.795Z,16.99
2018-07-02T02:44:36.676Z,16.97
2018-07-02T02:46:41.206Z,16.87
2018-07-02T02:48:46.122Z,16.76
2018-07-02T02:50:51.208Z,16.81
2018-07-02T02:52:56.330Z,16.76
2018-07-02T02:55:01.431Z,16.65
2018-07-02T02:57:06.434Z,15.99
2018-07-02T02:59:11.261Z,16.72
2018-07-02T03:01:16.687Z,16.66
2018-07-02T03:03:21.848Z,16.52
2018-07-02T03:05:26.724Z,16.38
2018-07-02T03:07:31.573Z,16.39
2018-07-02T03:09:36.804Z,16.35
2018-07-02T03:11:41.600Z,16.32
2018-07-02T03:13:46.580Z,16.14
2018-07-02T03:15:51.809Z,16.18
2018-07-02T03:17:56.815Z,16.21
2018-07-02T03:20:01.665Z,16.24
2018-07-02T03:22:07.000Z,16.13
2018-07-02T03:24:11.788Z,16.01
2018-07-02T03:26:16.738Z,16.00
2018-07-02T03:28:21.647Z,15.94
2018-07-02T03:30:26.462Z,15.98
2018-07-02T03:32:31.303Z,15.92
2018-07-02T03:34:36.143Z,15.94
2018-07-02T03:36:41.077Z,15.83
2018-07-02T03:38:45.902Z,15.69
2018-07-02T03:40:50.920Z,15.83
2018-07-02T03:42:55.769Z,15.84
2018-07-02T03:45:00.720Z,15.37
2018-07-02T03:47:05.604Z,15.79
2018-07-02T03:49:10.475Z,15.67
2018-07-02T03:51:15.359Z,15.79
2018-07-02T03:53:20.302Z,15.71
2018-07-02T03:55:25.805Z,15.63
2018-07-02T03:57:31.232Z,15.64
2018-07-02T03:59:36.231Z,15.72
2018-07-02T04:01:41.276Z,15.74
2018-07-02T04:03:46.799Z,15.71
2018-07-02T04:05:52.394Z,15.69
2018-07-02T04:07:57.655Z,15.66
2018-07-02T04:10:02.841Z,15.72
2018-07-02T04:12:08.102Z,15.45
2018-07-02T04:14:13.310Z,15.63
2018-07-02T04:16:18.520Z,15.62
2018-07-02T04:18:23.817Z,15.68
2018-07-02T04:20:29.204Z,15.75
2018-07-02T04:22:34.532Z,15.79
2018-07-02T04:24:39.688Z,15.80
2018-07-02T04:26:44.834Z,15.76
2018-07-02T04:28:52.495Z,15.72
2018-07-02T04:30:57.456Z,15.47
2018-07-02T04:33:02.596Z,15.70
2018-07-02T04:35:07.750Z,15.84
2018-07-02T04:37:12.788Z,15.80
2018-07-02T04:39:18.347Z,15.77
2018-07-02T04:41:24.524Z,15.70
2018-07-02T04:43:29.580Z,15.86
2018-07-02T04:45:35.150Z,15.82
2018-07-02T04:47:41.595Z,15.85
2018-07-02T04:49:46.627Z,15.83
2018-07-02T04:51:53.072Z,15.83
2018-07-02T04:53:58.057Z,15.90
2018-07-02T04:56:03.194Z,15.97
2018-07-02T04:58:08.193Z,15.98
2018-07-02T05:00:13.160Z,16.06
2018-07-02T05:02:18.257Z,16.08
2018-07-02T05:04:23.935Z,16.11
2018-07-02T05:06:29.152Z,16.14
2018-07-02T05:08:34.786Z,16.18
2018-07-02T05:10:39.809Z,16.26
2018-07-02T05:12:44.989Z,16.34
2018-07-02T05:14:49.887Z,16.33
2018-07-02T05:16:55.054Z,16.35
2018-07-02T05:19:00.109Z,16.35
2018-07-02T05:21:05.138Z,16.43
2018-07-02T05:23:10.172Z,16.69
2018-07-02T05:25:15.105Z,16.58
2018-07-02T05:27:20.696Z,16.50
2018-07-02T05:29:25.738Z,16.62
2018-07-02T05:31:30.947Z,16.46
2018-07-02T05:33:36.034Z,16.50
2018-07-02T05:35:41.292Z,16.53
2018-07-02T05:37:46.353Z,16.65
2018-07-02T05:39:51.544Z,16.60
2018-07-02T05:41:56.611Z,16.66
2018-07-02T05:44:01.672Z,16.81
2018-07-02T05:46:06.712Z,16.90
2018-07-02T05:48:12.264Z,16.90
2018-07-02T05:50:17.312Z,16.89
2018-07-02T05:52:22.239Z,16.96
2018-07-02T05:54:27.137Z,17.07
2018-07-02T05:56:32.263Z,17.06
2018-07-02T05:58:37.164Z,17.07
2018-07-02T06:00:42.219Z,16.99
2018-07-02T06:02:47.239Z,17.13
2018-07-02T06:04:53.059Z,17.24
2018-07-02T06:06:58.124Z,17.32
2018-07-02T06:09:03.470Z,17.45
2018-07-02T06:11:08.765Z,17.44
2018-07-02T06:13:14.380Z,16.80
2018-07-02T06:15:19.740Z,17.63
2018-07-02T06:17:24.847Z,17.56
2018-07-02T06:19:29.813Z,17.57
2018-07-02T06:21:34.676Z,17.62
2018-07-02T06:23:39.623Z,17.63
2018-07-02T06:25:44.616Z,17.70
2018-07-02T06:27:49.652Z,17.65
2018-07-02T06:29:54.591Z,17.83
2018-07-02T06:31:59.465Z,18.02
2018-07-02T06:34:04.410Z,18.05
2018-07-02T06:36:09.440Z,18.10
2018-07-02T06:38:14.333Z,18.08
2018-07-02T06:40:19.263Z,17.33
2018-07-02T06:42:24.232Z,18.21
2018-07-02T06:44:29.445Z,18.29
2018-07-02T06:46:34.323Z,18.12
2018-07-02T06:48:39.239Z,18.52
2018-07-02T06:50:44.044Z,18.18
2018-07-02T06:52:48.834Z,18.71
2018-07-02T06:54:54.054Z,18.73
2018-07-02T06:56:59.560Z,18.51
2018-07-02T06:59:04.418Z,18.76
2018-07-02T07:01:09.346Z,18.81
2018-07-02T07:03:15.125Z,18.93
2018-07-02T07:05:20.178Z,18.91
2018-07-02T07:07:24.920Z,18.92
2018-07-02T07:09:29.743Z,18.77
2018-07-02T07:11:34.680Z,18.44
2018-07-02T07:13:39.815Z,18.76
2018-07-02T07:15:44.690Z,19.25
2018-07-02T07:17:49.442Z,19.48
2018-07-02T07:19:54.276Z,19.85
2018-07-02T07:21:59.120Z,19.87
2018-07-02T07:24:03.931Z,19.91
2018-07-02T07:26:08.707Z,19.97
2018-07-02T07:28:14.574Z,20.10
2018-07-02T07:30:19.319Z,19.90
2018-07-02T07:32:24.406Z,20.22
2018-07-02T07:34:29.281Z,20.42
2018-07-02T07:36:34.244Z,20.65
2018-07-02T07:38:39.195Z,19.04
2018-07-02T07:40:44.181Z,20.80
2018-07-02T07:42:49.120Z,20.88
2018-07-02T07:44:54.472Z,21.18
2018-07-02T07:47:00.215Z,21.19
2018-07-02T07:49:06.212Z,21.12
2018-07-02T07:51:11.352Z,21.11
2018-07-02T07:53:16.331Z,21.10
2018-07-02T07:55:21.217Z,21.12
2018-07-02T07:57:26.145Z,21.20
2018-07-02T07:59:30.932Z,21.40
2018-07-02T08:01:35.954Z,21.41
2018-07-02T08:03:41.593Z,21.60
2018-07-02T08:05:46.639Z,21.70
2018-07-02T08:07:51.447Z,21.93
2018-07-02T08:09:56.236Z,22.03
2018-07-02T08:12:01.090Z,22.12
2018-07-02T08:14:06.029Z,22.18
2018-07-02T08:16:10.925Z,22.01
2018-07-02T08:18:15.795Z,22.18
2018-07-02T08:20:20.692Z,22.23
2018-07-02T08:22:25.575Z,22.33
2018-07-02T08:24:30.466Z,22.24
2018-07-02T08:26:35.223Z,22.68
2018-07-02T08:28:40.601Z,22.71
2018-07-02T08:30:45.591Z,23.03
2018-07-02T08:32:50.412Z,22.75
2018-07-02T08:34:55.114Z,22.94
2018-07-02T08:36:59.798Z,22.93
2018-07-02T08:39:07.626Z,22.04
2018-07-02T08:41:12.588Z,23.07
2018-07-02T08:43:17.593Z,23.11
2018-07-02T08:45:22.663Z,23.27
2018-07-02T08:47:27.648Z,23.32
2018-07-02T08:49:32.378Z,23.34
2018-07-02T08:51:37.556Z,23.09
2018-07-02T08:55:40.841Z,23.67
2018-07-02T08:57:45.844Z,23.72
2018-07-02T08:59:50.624Z,23.60
2018-07-02T09:01:55.565Z,23.62
2018-07-02T09:04:00.698Z,23.61
2018-07-02T09:06:05.726Z,23.69
2018-07-02T09:08:10.683Z,23.65
2018-07-02T09:10:15.510Z,23.68
2018-07-02T09:12:20.365Z,23.76
2018-07-02T09:14:25.270Z,23.86
2018-07-02T09:16:30.167Z,23.86
2018-07-02T09:18:34.947Z,23.92
2018-07-02T09:20:39.846Z,24.08
2018-07-02T09:22:44.595Z,24.13
2018-07-02T09:24:49.461Z,24.10
2018-07-02T09:26:54.223Z,24.15
2018-07-02T09:28:59.038Z,24.26
2018-07-02T09:31:03.801Z,24.36
2018-07-02T09:33:09.013Z,24.28
2018-07-02T09:35:13.850Z,24.31
2018-07-02T09:37:18.747Z,24.42
2018-07-02T09:39:23.579Z,24.30
2018-07-02T09:41:28.364Z,24.57
2018-07-02T09:43:33.211Z,24.63
2018-07-02T09:45:38.023Z,24.67
2018-07-02T09:47:42.980Z,24.62
2018-07-02T09:49:48.087Z,24.63
2018-07-02T09:51:54.254Z,24.70
2018-07-02T09:53:59.664Z,24.70
2018-07-02T09:56:06.004Z,24.88
2018-07-02T09:58:10.886Z,25.02
2018-07-02T10:00:15.761Z,24.92
2018-07-02T10:02:20.653Z,25.08
2018-07-02T10:04:25.669Z,23.76
2018-07-02T10:06:30.850Z,25.10
2018-07-02T10:08:35.678Z,25.08
2018-07-02T10:10:40.572Z,24.99
2018-07-02T10:12:45.399Z,24.45
2018-07-02T10:14:51.269Z,24.07
2018-07-02T10:16:56.174Z,25.03
2018-07-02T10:19:01.514Z,25.35
2018-07-02T10:21:07.023Z,25.47
2018-07-02T10:23:11.851Z,25.41
2018-07-02T10:25:16.696Z,25.51
2018-07-02T10:27:21.731Z,25.52
2018-07-02T10:29:27.061Z,25.11
2018-07-02T10:31:32.480Z,25.31
2018-07-02T10:33:37.579Z,25.22
2018-07-02T10:35:45.557Z,25.17
2018-07-02T10:37:50.670Z,25.31
2018-07-02T10:39:55.867Z,25.57
2018-07-02T10:42:00.586Z,24.80
2018-07-02T10:44:05.739Z,25.40
2018-07-02T10:46:10.883Z,25.30
2018-07-02T10:48:15.906Z,25.10
2018-07-02T10:50:20.698Z,25.28
2018-07-02T10:52:26.243Z,25.35
2018-07-02T10:54:31.109Z,25.45
2018-07-02T10:56:35.998Z,25.40
2018-07-02T10:58:40.945Z,25.61
2018-07-02T11:00:45.824Z,25.51
2018-07-02T11:02:50.795Z,25.38
2018-07-02T11:04:55.749Z,25.49
2018-07-02T11:07:00.756Z,25.39
2018-07-02T11:09:07.976Z,25.42
2018-07-02T11:11:12.880Z,25.72
2018-07-02T11:13:19.134Z,25.74
2018-07-02T11:15:24.746Z,25.55
2018-07-02T11:17:29.649Z,25.48
2018-07-02T11:19:37.198Z,25.46
2018-07-02T11:21:42.132Z,25.52
2018-07-02T11:23:47.101Z,25.51
2018-07-02T11:25:52.211Z,25.67
2018-07-02T11:27:57.826Z,25.41
2018-07-02T11:30:02.880Z,25.88
2018-07-02T11:32:07.881Z,26.01
2018-07-02T11:34:13.035Z,26.00
2018-07-02T11:36:18.056Z,26.02
2018-07-02T11:38:24.665Z,26.12
2018-07-02T11:40:29.651Z,26.10
2018-07-02T11:42:34.695Z,26.09
2018-07-02T11:44:39.625Z,26.25
2018-07-02T11:46:44.438Z,26.34
2018-07-02T11:48:49.311Z,26.35
2018-07-02T11:50:54.205Z,26.43
2018-07-02T11:53:00.201Z,26.39
2018-07-02T11:55:05.157Z,26.48
2018-07-02T11:57:10.032Z,26.34
2018-07-02T11:59:14.862Z,26.10
2018-07-02T12:01:19.719Z,26.12
2018-07-02T12:03:24.619Z,25.92
2018-07-02T12:05:29.488Z,26.23
2018-07-02T12:07:34.383Z,26.36
2018-07-02T12:09:39.318Z,26.44
2018-07-02T12:11:44.237Z,26.42
2018-07-02T12:13:49.396Z,26.37
2018-07-02T12:15:54.672Z,25.99
2018-07-02T12:17:59.498Z,26.27
2018-07-02T12:20:04.927Z,26.42
2018-07-02T12:22:09.798Z,26.37
2018-07-02T12:24:14.888Z,26.72
2018-07-02T12:26:19.767Z,26.83
2018-07-02T12:28:24.618Z,26.84
2018-07-02T12:30:29.567Z,26.85
2018-07-02T12:32:34.489Z,27.06
2018-07-02T12:34:39.663Z,27.09
2018-07-02T12:36:44.495Z,27.11
2018-07-02T12:38:49.667Z,26.95
2018-07-02T12:40:54.718Z,26.72
2018-07-02T12:43:00.109Z,26.81
2018-07-02T12:45:05.186Z,26.85
2018-07-02T12:47:10.169Z,26.70
2018-07-02T12:49:15.107Z,26.86
2018-07-02T12:51:19.977Z,27.12
2018-07-02T12:53:24.939Z,27.12
2018-07-02T12:55:30.335Z,27.00
2018-07-02T12:57:35.361Z,26.91
2018-07-02T12:59:40.207Z,27.07
2018-07-02T13:01:45.229Z,26.94
2018-07-02T13:03:50.486Z,27.08
2018-07-02T13:05:55.703Z,27.15
2018-07-02T13:08:00.640Z,26.87
2018-07-02T13:10:05.938Z,27.09
2018-07-02T13:12:10.708Z,27.13
2018-07-02T13:14:15.848Z,26.79
2018-07-02T13:16:20.645Z,27.33
2018-07-02T13:18:25.500Z,27.34
2018-07-02T13:20:30.462Z,27.48
2018-07-02T13:22:35.233Z,27.37
2018-07-02T13:24:40.184Z,27.60
2018-07-02T13:26:45.021Z,27.54
2018-07-02T13:28:51.772Z,27.63
2018-07-02T13:30:56.671Z,27.70
2018-07-02T13:33:01.553Z,27.80
2018-07-02T13:35:06.460Z,27.76
2018-07-02T13:37:11.279Z,27.59
2018-07-02T13:39:16.001Z,27.72
2018-07-02T13:41:20.892Z,27.72
2018-07-02T13:43:25.865Z,27.64
2018-07-02T13:45:30.866Z,27.62
2018-07-02T13:47:35.743Z,27.53
2018-07-02T13:49:40.661Z,27.29
2018-07-02T13:51:45.572Z,27.07
2018-07-02T13:53:50.597Z,27.26
2018-07-02T13:55:56.123Z,27.43
2018-07-02T13:58:01.140Z,27.57
2018-07-02T14:00:06.576Z,27.66
2018-07-02T14:02:11.506Z,27.71
2018-07-02T14:04:16.407Z,27.43
2018-07-02T14:06:21.317Z,27.76
2018-07-02T14:08:26.164Z,27.86
2018-07-02T14:10:31.342Z,27.62
2018-07-02T14:12:36.205Z,27.89
2018-07-02T14:14:41.200Z,27.77
2018-07-02T14:16:45.964Z,27.40
2018-07-02T14:18:50.803Z,27.70
2018-07-02T14:20:55.628Z,27.81
2018-07-02T14:23:00.567Z,27.76
2018-07-02T14:25:05.399Z,27.81
2018-07-02T14:27:10.634Z,27.93
2018-07-02T14:29:15.680Z,28.05
2018-07-02T14:31:20.690Z,28.03
2018-07-02T14:33:25.617Z,27.91
2018-07-02T14:35:30.633Z,27.94
2018-07-02T14:37:35.560Z,27.99
2018-07-02T14:39:41.033Z,27.54
2018-07-02T14:41:46.523Z,27.56
2018-07-02T14:43:51.611Z,28.10
2018-07-02T14:45:57.100Z,28.56
2018-07-02T14:48:02.626Z,27.34
2018-07-02T14:50:08.877Z,28.65
2018-07-02T14:52:14.870Z,28.52
2018-07-02T14:54:20.906Z,28.42
2018-07-02T14:56:25.967Z,28.27
2018-07-02T14:58:31.882Z,28.10
2018-07-02T15:00:37.715Z,28.21
2018-07-02T15:02:42.992Z,28.52
2018-07-02T15:04:47.946Z,28.21
2018-07-02T15:06:53.279Z,28.13
2018-07-02T15:08:59.655Z,28.10
2018-07-02T15:11:05.277Z,28.15
2018-07-02T15:13:11.313Z,28.18
2018-07-02T15:15:16.626Z,28.39
2018-07-02T15:17:22.844Z,28.30
2018-07-02T15:19:28.012Z,28.34
2018-07-02T15:21:32.928Z,28.19
2018-07-02T15:23:38.117Z,28.06
2018-07-02T15:25:43.397Z,28.05
2018-07-02T15:27:48.915Z,28.12
2018-07-02T15:29:53.749Z,28.16
2018-07-02T15:31:58.760Z,28.26
2018-07-02T15:34:03.764Z,28.29
2018-07-02T15:36:08.553Z,28.43
2018-07-02T15:38:13.594Z,28.41
2018-07-02T15:40:19.067Z,28.45
2018-07-02T15:42:24.234Z,28.36
2018-07-02T15:44:29.028Z,28.41
2018-07-02T15:46:34.816Z,28.38
2018-07-02T15:48:40.188Z,28.36
2018-07-02T15:50:46.292Z,28.49
2018-07-02T15:52:52.410Z,28.87
2018-07-02T15:54:57.639Z,28.74
2018-07-02T15:57:02.642Z,28.85
2018-07-02T15:59:07.465Z,28.48
2018-07-02T16:01:12.420Z,28.89
2018-07-02T16:03:17.797Z,28.85
2018-07-02T16:05:22.740Z,28.96
2018-07-02T16:07:27.747Z,29.09
2018-07-02T16:09:32.694Z,29.07
2018-07-02T16:11:37.611Z,28.24
2018-07-02T16:13:42.489Z,28.85
2018-07-02T16:15:47.545Z,28.87
2018-07-02T16:17:52.879Z,28.87
2018-07-02T16:19:57.994Z,28.82
2018-07-02T16:22:02.966Z,29.08
2018-07-02T16:24:10.433Z,29.15
2018-07-02T16:26:15.496Z,29.07
2018-07-02T16:28:20.462Z,29.21
2018-07-02T16:30:25.888Z,29.32
2018-07-02T16:32:31.020Z,29.49
2018-07-02T16:34:36.648Z,29.42
2018-07-02T16:36:41.522Z,29.38
2018-07-02T16:38:46.642Z,29.38
2018-07-02T16:40:51.429Z,29.85
2018-07-02T16:42:56.641Z,29.90
2018-07-02T16:45:02.102Z,30.12
2018-07-02T16:47:09.185Z,30.26
2018-07-02T16:49:14.206Z,30.73
2018-07-02T16:51:19.564Z,30.91
2018-07-02T16:53:24.735Z,31.41
2018-07-02T16:55:29.723Z,31.93
2018-07-02T16:57:34.782Z,31.34
2018-07-02T16:59:39.740Z,32.06
2018-07-02T17:01:44.736Z,32.39
2018-07-02T17:03:49.636Z,32.21
2018-07-02T17:05:54.579Z,32.30
2018-07-02T17:07:59.778Z,32.22
2018-07-02T17:10:05.015Z,31.93
2018-07-02T17:12:10.013Z,32.48
2018-07-02T17:14:15.294Z,32.50
2018-07-02T17:16:20.255Z,32.42
2018-07-02T17:18:29.109Z,31.89
2018-07-02T17:20:34.214Z,31.42
2018-07-02T17:22:39.503Z,32.57
2018-07-02T17:24:44.396Z,31.55
2018-07-02T17:26:50.177Z,31.87
2018-07-02T17:28:55.442Z,31.79
2018-07-02T17:31:00.267Z,31.43
2018-07-02T17:33:05.462Z,31.78
2018-07-02T17:35:10.436Z,31.90
2018-07-02T17:37:15.504Z,31.14
2018-07-02T17:39:20.408Z,31.46
2018-07-02T17:41:25.473Z,31.35
2018-07-02T17:43:30.445Z,31.54
2018-07-02T17:45:35.494Z,31.29
2018-07-02T17:47:40.604Z,31.77
2018-07-02T17:49:45.732Z,31.57
2018-07-02T17:51:50.841Z,31.57
2018-07-02T17:53:56.164Z,31.19
2018-07-02T17:56:01.344Z,31.30
2018-07-02T17:58:07.374Z,31.60
2018-07-02T18:00:12.354Z,31.21
2018-07-02T18:02:17.342Z,31.18
2018-07-02T18:04:22.704Z,31.30
2018-07-02T18:06:28.301Z,31.30
2018-07-02T18:08:34.201Z,31.27
2018-07-02T18:10:39.935Z,31.09
2018-07-02T18:12:47.646Z,30.87
2018-07-02T18:14:52.857Z,30.51
2018-07-02T18:16:59.023Z,30.50
2018-07-02T18:19:04.735Z,30.44
2018-07-02T18:21:10.688Z,30.38
2018-07-02T18:23:17.067Z,30.25
2018-07-02T18:25:22.382Z,30.14
2018-07-02T18:27:28.296Z,29.79
2018-07-02T18:29:33.720Z,29.64
2018-07-02T18:31:39.081Z,29.59
2018-07-02T18:33:44.704Z,29.52
2018-07-02T18:35:50.452Z,28.86
2018-07-02T18:37:55.999Z,28.75
2018-07-02T18:40:04.033Z,28.18
2018-07-02T18:42:10.356Z,27.91
2018-07-02T18:44:18.405Z,27.70
2018-07-02T18:46:27.252Z,27.28
2018-07-02T18:48:35.265Z,27.11
2018-07-02T18:50:41.546Z,26.89
2018-07-02T18:52:46.807Z,25.72
2018-07-02T18:54:52.439Z,26.63
2018-07-02T18:57:01.590Z,26.47
2018-07-02T18:59:08.026Z,26.32
2018-07-02T19:03:29.663Z,26.10
2018-07-02T19:05:38.009Z,25.91
2018-07-02T19:07:43.367Z,25.77
2018-07-02T19:09:49.106Z,25.52
2018-07-02T19:12:00.772Z,25.67
2018-07-02T19:14:07.317Z,25.60
2018-07-02T19:16:15.465Z,25.48
2018-07-02T19:18:20.897Z,25.29
2018-07-02T19:20:29.211Z,25.28
2018-07-02T19:22:40.131Z,25.10
2018-07-02T19:24:46.509Z,24.87
2018-07-02T19:26:51.931Z,24.94
2018-07-02T19:28:57.224Z,24.88
2018-07-02T19:31:02.551Z,24.79
2018-07-02T19:33:09.053Z,24.69
2018-07-02T19:35:14.441Z,24.72
2018-07-02T19:37:26.913Z,24.66
2018-07-02T19:39:32.659Z,24.44
2018-07-02T19:41:38.546Z,24.42
2018-07-02T19:43:43.912Z,24.34
2018-07-02T19:45:49.382Z,24.24
2018-07-02T19:47:55.334Z,24.28
2018-07-02T19:50:00.635Z,24.05
2018-07-02T19:52:05.597Z,23.96
2018-07-02T19:54:11.356Z,23.87
2018-07-02T19:56:17.807Z,23.93
2018-07-02T19:58:22.835Z,23.77
2018-07-02T20:00:28.202Z,23.74
2018-07-02T20:02:33.426Z,23.67
2018-07-02T20:04:38.843Z,23.57
2018-07-02T20:06:48.239Z,23.54
2018-07-02T20:08:53.492Z,23.50
2018-07-02T20:10:59.216Z,23.31
2018-07-02T20:13:05.124Z,23.38
2018-07-02T20:15:12.511Z,23.32
2018-07-02T20:17:17.531Z,23.24
2018-07-02T20:19:22.787Z,23.38
2018-07-02T20:21:28.112Z,22.68
2018-07-02T20:23:33.090Z,22.91
2018-07-02T20:25:38.041Z,23.09
2018-07-02T20:27:43.272Z,22.97
2018-07-02T20:29:48.897Z,22.93
2018-07-02T20:31:54.160Z,22.90
2018-07-02T20:33:59.881Z,22.90
2018-07-02T20:36:04.657Z,22.77
2018-07-02T20:38:10.118Z,22.67
2018-07-02T20:40:17.030Z,22.24
2018-07-02T20:42:21.981Z,22.63
2018-07-02T20:44:27.146Z,22.54
2018-07-02T20:46:32.690Z,22.44
2018-07-02T20:48:41.525Z,22.40
2018-07-02T20:50:47.165Z,22.34
2018-07-02T20:52:52.490Z,22.08
2018-07-02T20:54:59.047Z,22.27
2018-07-02T20:57:04.114Z,22.22
2018-07-02T20:59:09.589Z,22.16
2018-07-02T21:01:14.861Z,20.61
2018-07-02T21:03:19.864Z,22.07
2018-07-02T21:05:25.001Z,21.98
2018-07-02T21:07:30.429Z,22.09
2018-07-02T21:09:36.139Z,22.02
2018-07-02T21:11:41.101Z,21.95
2018-07-02T21:13:46.211Z,21.89
2018-07-02T21:16:03.098Z,21.83
2018-07-02T21:18:15.990Z,21.70
2018-07-02T21:20:21.936Z,20.59
2018-07-02T21:22:27.929Z,21.14
2018-07-02T21:24:33.408Z,19.63
2018-07-02T21:26:38.515Z,21.59
2018-07-02T21:28:43.713Z,21.43
2018-07-02T21:30:49.663Z,21.42
2018-07-02T21:32:54.900Z,21.43
2018-07-02T21:34:59.996Z,21.35
2018-07-02T21:37:06.884Z,21.09
2018-07-02T21:39:13.749Z,21.21
2018-07-02T21:41:19.330Z,21.22
2018-07-02T21:43:24.607Z,21.09
2018-07-02T21:45:35.459Z,21.05
2018-07-02T21:47:41.172Z,20.30
2018-07-02T21:49:46.306Z,20.99
2018-07-02T21:52:32.217Z,21.00
2018-07-02T21:54:38.055Z,20.92
2018-07-02T21:56:43.606Z,20.88
2018-07-02T21:58:50.365Z,20.88
2018-07-02T22:00:56.392Z,20.82
2018-07-02T22:03:02.584Z,20.23
2018-07-02T22:05:08.581Z,20.89
2018-07-02T22:07:14.440Z,20.25
2018-07-02T22:09:20.077Z,20.87
2018-07-02T22:11:25.660Z,20.86
2018-07-02T22:13:30.943Z,20.79
2018-07-02T22:15:37.604Z,20.43
2018-07-02T22:17:42.680Z,20.76
2018-07-02T22:19:47.693Z,20.77
2018-07-02T22:21:52.718Z,20.74
2018-07-02T22:23:59.208Z,19.49
2018-07-02T22:26:04.311Z,20.61
2018-07-02T22:28:09.337Z,20.68
2018-07-02T22:30:14.760Z,19.65
2018-07-02T22:32:20.124Z,20.69
2018-07-02T22:34:25.382Z,20.70
2018-07-02T22:36:30.822Z,20.17
2018-07-02T22:38:36.138Z,19.77
2018-07-02T22:40:41.127Z,20.60
2018-07-02T22:43:29.095Z,20.61
2018-07-02T22:45:35.001Z,20.57
2018-07-02T22:47:40.681Z,20.57
2018-07-02T22:49:46.900Z,20.72
2018-07-02T22:51:52.255Z,20.61
2018-07-02T22:53:57.352Z,20.55
2018-07-02T22:56:06.811Z,20.13
2018-07-02T22:58:13.374Z,20.53
2018-07-02T23:00:19.224Z,20.51
2018-07-02T23:02:26.884Z,20.31
2018-07-02T23:04:32.656Z,20.29
2018-07-02T23:06:38.931Z,20.23
2018-07-02T23:08:44.228Z,20.33
2018-07-02T23:10:50.526Z,20.40
2018-07-02T23:12:55.884Z,20.35
2018-07-02T23:15:01.879Z,20.35
2018-07-02T23:17:07.675Z,20.31
2018-07-02T23:19:13.760Z,20.26
2018-07-02T23:21:20.807Z,20.30
2018-07-02T23:23:26.381Z,20.26
2018-07-02T23:25:32.899Z,20.24
2018-07-02T23:27:39.588Z,20.27
2018-07-02T23:29:44.991Z,20.34
2018-07-02T23:31:50.246Z,20.25
2018-07-02T23:33:55.516Z,20.19
2018-07-02T23:36:00.980Z,19.98
2018-07-02T23:38:06.366Z,20.07
2018-07-02T23:40:11.400Z,19.89
2018-07-02T23:42:31.420Z,19.80
2018-07-02T23:44:36.393Z,19.94
2018-07-02T23:46:41.353Z,19.90
2018-07-02T23:48:46.329Z,19.91
2018-07-02T23:50:51.455Z,19.87
2018-07-02T23:52:56.418Z,19.81
2018-07-02T23:55:01.456Z,19.80
2018-07-02T23:57:06.422Z,19.81
2018-07-02T23:59:11.687Z,19.89
